Seneca, Michigan
Current Conditions -  °F | °C
As of 4:53 PM on Tuesday 25 Nov 2014 (Local Time) from KADG Reporting Station
Overcast Overcast  
Wind Chill: -7°   Ceiling: 2100
Heat Index: -2°   Visibility: 10mi
Dew Point: -6°   Wind: 9mph
Humidity: 75%   Direction: 280°W
Pressure: 30.14"   Gusts: NA
Location:  41.79°N, 84.18°W
Report Text: KADG 252153Z AUTO 28008KT 10SM OVC021 M02/M06 A3014 RMK AO2 SLP218 T10221061
Loading
Personal Weather Stations






























Interactive Weather Map New forecast layout! Learn more

10-Day Weather Forecast

Advertisements
Track Severe Weather on mobile